createdAt,value
2022-08-25T00:00:37.109Z,18.67
2022-08-25T00:02:56.408Z,18.71
2022-08-25T00:05:11.389Z,18.73
2022-08-25T00:07:24.722Z,18.76
2022-08-25T00:09:38.927Z,18.77
2022-08-25T00:11:52.574Z,18.80
2022-08-25T00:14:08.273Z,18.77
2022-08-25T00:16:22.664Z,18.69
2022-08-25T00:18:35.653Z,18.65
2022-08-25T00:20:48.993Z,18.70
2022-08-25T00:23:02.740Z,18.70
2022-08-25T00:25:16.151Z,18.72
2022-08-25T00:27:29.223Z,18.73
2022-08-25T00:29:42.619Z,18.74
2022-08-25T00:31:56.174Z,18.75
2022-08-25T00:34:10.269Z,18.75
2022-08-25T00:36:23.761Z,18.66
2022-08-25T00:38:37.640Z,18.58
2022-08-25T00:41:06.923Z,18.54
2022-08-25T00:43:20.759Z,18.46
2022-08-25T00:45:34.157Z,18.44
2022-08-25T00:47:47.364Z,18.39
2022-08-25T00:50:03.286Z,18.36
2022-08-25T00:52:22.076Z,18.38
2022-08-25T00:54:39.294Z,18.43
2022-08-25T00:56:53.214Z,18.44
2022-08-25T00:59:07.044Z,18.44
2022-08-25T01:01:20.122Z,18.41
2022-08-25T01:03:36.525Z,18.35
2022-08-25T01:05:50.735Z,18.37
2022-08-25T01:08:06.885Z,18.38
2022-08-25T01:10:20.474Z,18.33
2022-08-25T01:12:33.857Z,18.32
2022-08-25T01:14:47.806Z,18.31
2022-08-25T01:17:01.263Z,18.32
2022-08-25T01:19:16.777Z,18.34
2022-08-25T01:21:31.659Z,18.33
2022-08-25T01:23:45.070Z,18.30
2022-08-25T01:26:05.640Z,18.26
2022-08-25T01:28:19.220Z,18.11
2022-08-25T01:30:32.782Z,17.97
2022-08-25T01:32:45.747Z,17.96
2022-08-25T01:34:58.692Z,17.93
2022-08-25T01:37:13.158Z,17.84
2022-08-25T01:39:26.974Z,17.75
2022-08-25T01:41:48.142Z,17.64
2022-08-25T01:44:07.097Z,17.61
2022-08-25T01:46:25.939Z,17.54
2022-08-25T01:48:39.028Z,17.45
2022-08-25T01:50:52.009Z,17.38
2022-08-25T01:53:08.049Z,17.33
2022-08-25T01:55:21.156Z,17.30
2022-08-25T01:57:35.133Z,17.27
2022-08-25T01:59:48.740Z,17.24
2022-08-25T02:02:01.899Z,17.21
2022-08-25T02:04:18.042Z,17.23
2022-08-25T02:06:36.770Z,17.29
2022-08-25T02:08:53.627Z,17.35
2022-08-25T02:11:06.952Z,17.34
2022-08-25T02:13:26.837Z,17.31
2022-08-25T02:15:49.958Z,17.26
2022-08-25T02:18:03.768Z,17.27
2022-08-25T02:20:17.488Z,17.25
2022-08-25T02:22:30.445Z,17.19
2022-08-25T02:24:43.514Z,17.17
2022-08-25T02:26:56.565Z,17.17
2022-08-25T02:29:10.903Z,17.14
2022-08-25T02:31:26.125Z,17.07
2022-08-25T02:33:39.099Z,17.00
2022-08-25T02:35:53.013Z,16.93
2022-08-25T02:38:06.314Z,16.90
2022-08-25T02:40:19.847Z,16.91
2022-08-25T02:42:32.863Z,16.91
2022-08-25T02:44:45.883Z,16.92
2022-08-25T02:46:59.255Z,16.94
2022-08-25T02:49:13.321Z,16.97
2022-08-25T02:51:29.792Z,16.96
2022-08-25T02:53:43.518Z,16.93
2022-08-25T02:55:57.174Z,16.90
2022-08-25T02:58:11.549Z,16.88
2022-08-25T03:00:25.424Z,16.89
2022-08-25T03:02:38.849Z,16.90
2022-08-25T03:04:51.951Z,16.92
2022-08-25T03:07:08.305Z,16.92
2022-08-25T03:09:21.495Z,16.93
2022-08-25T03:11:35.109Z,16.94
2022-08-25T03:13:48.519Z,16.96
2022-08-25T03:16:01.601Z,16.98
2022-08-25T03:18:16.679Z,17.00
2022-08-25T03:20:31.840Z,17.04
2022-08-25T03:22:45.355Z,17.07
2022-08-25T03:25:30.664Z,17.11
2022-08-25T03:27:43.667Z,17.14
2022-08-25T03:29:58.183Z,17.16
2022-08-25T03:32:12.299Z,17.17
2022-08-25T03:34:26.319Z,17.21
2022-08-25T03:36:39.699Z,17.23
2022-08-25T03:38:52.758Z,17.25
2022-08-25T03:41:05.831Z,17.27
2022-08-25T03:43:19.726Z,17.30
2022-08-25T03:45:33.153Z,17.33
2022-08-25T03:47:49.342Z,17.35
2022-08-25T03:50:02.576Z,17.36
2022-08-25T03:52:15.765Z,17.36
2022-08-25T03:54:30.190Z,17.37
2022-08-25T03:56:43.541Z,17.38
2022-08-25T03:58:56.905Z,17.39
2022-08-25T04:01:10.756Z,17.41
2022-08-25T04:03:24.364Z,17.43
2022-08-25T04:05:37.458Z,17.44
2022-08-25T04:07:51.034Z,17.45
2022-08-25T04:10:04.244Z,17.46
2022-08-25T04:12:17.272Z,17.46
2022-08-25T04:14:32.406Z,17.48
2022-08-25T04:16:45.709Z,17.52
2022-08-25T04:18:59.781Z,17.52
2022-08-25T04:21:14.929Z,17.53
2022-08-25T04:23:28.145Z,17.55
2022-08-25T04:25:43.844Z,17.53
2022-08-25T04:27:59.369Z,17.46
2022-08-25T04:30:14.563Z,17.45
2022-08-25T04:32:27.629Z,17.46
2022-08-25T04:34:40.974Z,17.50
2022-08-25T04:36:53.919Z,17.54
2022-08-25T04:39:07.236Z,17.59
2022-08-25T04:41:22.453Z,17.61
2022-08-25T04:43:36.407Z,17.66
2022-08-25T04:45:49.532Z,17.70
2022-08-25T04:48:03.097Z,17.73
2022-08-25T04:50:16.590Z,17.77
2022-08-25T04:52:29.645Z,17.79
2022-08-25T04:54:43.336Z,17.81
2022-08-25T04:56:58.467Z,17.81
2022-08-25T04:59:13.736Z,17.82
2022-08-25T05:01:29.219Z,17.82
2022-08-25T05:03:42.509Z,17.81
2022-08-25T05:05:58.578Z,17.82
2022-08-25T05:08:12.334Z,17.80
2022-08-25T05:10:25.678Z,17.81
2022-08-25T05:12:40.142Z,17.81
2022-08-25T05:14:55.258Z,17.81
2022-08-25T05:17:08.723Z,17.80
2022-08-25T05:19:22.094Z,17.79
2022-08-25T05:21:35.584Z,17.76
2022-08-25T05:23:49.614Z,17.75
2022-08-25T05:26:08.519Z,17.71
2022-08-25T05:28:22.447Z,17.69
2022-08-25T05:30:35.883Z,17.69
2022-08-25T05:32:49.807Z,17.68
2022-08-25T05:35:03.183Z,17.69
2022-08-25T05:37:17.026Z,17.68
2022-08-25T05:39:33.569Z,17.65
2022-08-25T05:41:47.346Z,17.64
2022-08-25T05:44:01.343Z,17.62
2022-08-25T05:46:15.562Z,17.60
2022-08-25T05:48:29.989Z,17.58
2022-08-25T05:50:43.235Z,17.59
2022-08-25T05:52:57.029Z,17.58
2022-08-25T05:55:11.962Z,17.52
2022-08-25T05:57:25.031Z,17.48
2022-08-25T05:59:39.236Z,17.43
2022-08-25T06:02:08.324Z,17.39
2022-08-25T06:04:23.663Z,17.38
2022-08-25T06:06:36.836Z,17.38
2022-08-25T06:08:50.071Z,17.38
2022-08-25T06:11:03.801Z,17.38
2022-08-25T06:13:17.405Z,17.36
2022-08-25T06:15:37.557Z,17.32
2022-08-25T06:17:51.286Z,17.32
2022-08-25T06:20:05.045Z,17.30
2022-08-25T06:22:20.153Z,17.28
2022-08-25T06:24:34.346Z,17.25
2022-08-25T06:26:47.393Z,17.25
2022-08-25T06:29:00.563Z,17.26
2022-08-25T06:31:14.038Z,17.28
2022-08-25T06:33:27.227Z,17.29
2022-08-25T06:35:40.802Z,17.30
2022-08-25T06:37:53.909Z,17.31
2022-08-25T06:40:08.120Z,17.30
2022-08-25T06:42:21.347Z,17.28
2022-08-25T06:44:35.229Z,17.24
2022-08-25T06:46:48.529Z,17.20
2022-08-25T06:49:02.017Z,17.14
2022-08-25T06:51:18.381Z,17.12
2022-08-25T06:53:31.579Z,17.12
2022-08-25T06:55:44.909Z,17.12
2022-08-25T06:58:00.702Z,17.07
2022-08-25T07:00:16.691Z,17.04
2022-08-25T07:02:29.873Z,17.02
2022-08-25T07:04:48.343Z,17.02
2022-08-25T07:07:01.856Z,17.05
2022-08-25T07:09:15.731Z,17.07
2022-08-25T07:11:29.027Z,17.06
2022-08-25T07:13:43.206Z,17.03
2022-08-25T07:15:59.633Z,17.00
2022-08-25T07:18:13.373Z,16.98
2022-08-25T07:22:44.106Z,16.85
2022-08-25T07:24:57.424Z,16.79
2022-08-25T07:27:11.097Z,16.75
2022-08-25T07:29:32.963Z,16.71
2022-08-25T07:31:46.820Z,16.67
2022-08-25T07:34:16.418Z,16.62
2022-08-25T07:36:29.702Z,16.59
2022-08-25T07:38:43.066Z,16.60
2022-08-25T07:41:03.986Z,16.62
2022-08-25T07:43:17.043Z,16.61
2022-08-25T07:45:32.822Z,16.60
2022-08-25T07:47:46.145Z,16.60
2022-08-25T07:49:59.153Z,16.59
2022-08-25T07:52:12.755Z,16.60
2022-08-25T07:54:33.716Z,16.61
2022-08-25T07:56:47.751Z,16.61
2022-08-25T07:59:00.783Z,16.64
2022-08-25T08:01:20.320Z,16.65
2022-08-25T08:03:50.279Z,16.64
2022-08-25T08:06:04.485Z,16.65
2022-08-25T08:08:18.978Z,16.65
2022-08-25T08:10:53.843Z,16.63
2022-08-25T08:13:07.574Z,16.60
2022-08-25T08:15:20.837Z,16.59
2022-08-25T08:17:35.365Z,16.60
2022-08-25T08:19:48.530Z,16.64
2022-08-25T08:22:02.268Z,16.64
2022-08-25T08:24:40.694Z,16.63
2022-08-25T08:26:58.629Z,16.60
2022-08-25T08:29:12.365Z,16.59
2022-08-25T08:31:28.134Z,16.61
2022-08-25T08:33:41.847Z,16.64
2022-08-25T08:36:05.248Z,16.68
2022-08-25T08:38:22.289Z,16.71
2022-08-25T08:41:09.931Z,16.73
2022-08-25T08:43:26.264Z,16.76
2022-08-25T08:45:49.791Z,16.78
2022-08-25T08:48:26.214Z,16.80
2022-08-25T08:50:56.248Z,16.84
2022-08-25T08:53:14.074Z,16.87
2022-08-25T08:55:33.705Z,16.88
2022-08-25T08:57:52.797Z,16.88
2022-08-25T09:00:09.860Z,16.88
2022-08-25T09:02:41.079Z,16.87
2022-08-25T09:05:07.214Z,16.87
2022-08-25T09:07:25.153Z,16.88
2022-08-25T09:09:40.650Z,16.88
2022-08-25T09:12:02.937Z,16.88
2022-08-25T09:14:30.730Z,16.88
2022-08-25T09:16:58.870Z,16.90
2022-08-25T09:19:25.211Z,16.92
2022-08-25T09:21:46.943Z,16.91
2022-08-25T09:24:15.918Z,16.92
2022-08-25T09:26:39.221Z,16.94
2022-08-25T09:28:56.507Z,16.94
2022-08-25T09:31:15.966Z,16.93
2022-08-25T09:33:30.698Z,16.92
2022-08-25T09:35:48.291Z,16.90
2022-08-25T09:38:08.568Z,16.92
2022-08-25T09:40:21.698Z,16.90
2022-08-25T09:42:57.946Z,16.88
2022-08-25T09:45:15.397Z,16.88
2022-08-25T09:47:31.036Z,16.88
2022-08-25T09:49:47.835Z,16.87
2022-08-25T09:52:19.602Z,16.87
2022-08-25T09:54:43.974Z,16.86
2022-08-25T09:57:03.189Z,16.87
2022-08-25T09:59:34.255Z,16.87
2022-08-25T10:01:58.162Z,16.87
2022-08-25T10:04:18.984Z,16.84
2022-08-25T10:06:39.850Z,16.85
2022-08-25T10:09:02.804Z,16.86
2022-08-25T10:11:34.518Z,16.88
2022-08-25T10:13:51.391Z,16.89
2022-08-25T10:16:20.199Z,16.88
2022-08-25T10:18:35.170Z,16.90
2022-08-25T10:21:03.671Z,16.90
2022-08-25T10:23:20.908Z,16.90
2022-08-25T10:25:37.422Z,16.87
2022-08-25T10:28:00.007Z,16.86
2022-08-25T10:30:22.706Z,16.84
2022-08-25T10:32:51.569Z,16.83
2022-08-25T10:35:12.643Z,16.83
2022-08-25T10:37:38.301Z,16.81
2022-08-25T10:39:59.947Z,16.81
2022-08-25T10:42:30.678Z,16.79
2022-08-25T10:45:13.512Z,16.76
2022-08-25T10:47:48.423Z,16.72
2022-08-25T10:50:07.465Z,16.71
2022-08-25T10:52:27.066Z,16.67
2022-08-25T10:54:48.967Z,16.64
2022-08-25T10:57:12.961Z,16.62
2022-08-25T10:59:54.970Z,16.59
2022-08-25T11:02:31.907Z,16.56
2022-08-25T11:04:48.167Z,16.52
2022-08-25T11:07:07.034Z,16.50
2022-08-25T11:09:24.828Z,16.50
2022-08-25T11:11:41.067Z,16.50
2022-08-25T11:13:58.657Z,16.49
2022-08-25T11:16:19.160Z,16.48
2022-08-25T11:18:34.916Z,16.42
2022-08-25T11:21:04.762Z,16.36
2022-08-25T11:23:24.773Z,16.31
2022-08-25T11:25:42.725Z,16.29
2022-08-25T11:28:03.364Z,16.28
2022-08-25T11:30:19.644Z,16.29
2022-08-25T11:32:36.584Z,16.31
2022-08-25T11:34:50.155Z,16.32
2022-08-25T11:37:11.120Z,16.32
2022-08-25T11:39:36.893Z,16.32
2022-08-25T11:42:02.448Z,16.33
2022-08-25T11:44:33.661Z,16.34
2022-08-25T11:47:09.044Z,16.36
2022-08-25T11:50:01.213Z,16.38
2022-08-25T11:52:45.486Z,16.42
2022-08-25T11:54:59.029Z,16.46
2022-08-25T11:57:21.337Z,16.48
2022-08-25T11:59:47.892Z,16.51
2022-08-25T12:02:09.225Z,16.54
2022-08-25T12:04:44.353Z,16.55
2022-08-25T12:07:24.979Z,16.58
2022-08-25T12:09:58.323Z,16.58
2022-08-25T12:12:35.374Z,16.59
2022-08-25T12:14:51.923Z,16.60
2022-08-25T12:17:21.363Z,16.60
2022-08-25T12:19:51.733Z,16.60
2022-08-25T12:22:52.680Z,16.62
2022-08-25T12:25:12.843Z,16.63
2022-08-25T12:27:35.327Z,16.65
2022-08-25T12:29:50.691Z,16.65
2022-08-25T12:32:29.270Z,16.67
2022-08-25T12:35:13.349Z,16.68
2022-08-25T12:37:28.428Z,16.61
2022-08-25T12:39:46.801Z,16.51
2022-08-25T12:42:03.396Z,16.46
2022-08-25T12:44:37.592Z,16.44
2022-08-25T12:47:09.384Z,16.45
2022-08-25T12:49:37.059Z,16.47
2022-08-25T12:52:08.343Z,16.49
2022-08-25T12:54:28.830Z,16.48
2022-08-25T12:56:48.811Z,16.49
2022-08-25T12:59:16.289Z,16.51
2022-08-25T13:01:43.098Z,16.52
2022-08-25T13:04:27.647Z,16.54
2022-08-25T13:06:59.204Z,16.55
2022-08-25T13:09:52.808Z,16.59
2022-08-25T13:12:12.999Z,16.64
2022-08-25T13:16:59.534Z,16.68
2022-08-25T13:19:10.250Z,16.68
2022-08-25T13:21:35.842Z,16.66
2022-08-25T13:23:53.847Z,16.65
2022-08-25T13:26:08.083Z,16.64
2022-08-25T13:28:31.428Z,16.64
2022-08-25T13:30:44.566Z,16.64
2022-08-25T13:32:57.743Z,16.65
2022-08-25T13:35:23.917Z,16.66
2022-08-25T13:37:37.706Z,16.64
2022-08-25T13:39:56.468Z,16.65
2022-08-25T13:42:18.116Z,16.65
2022-08-25T13:44:33.418Z,16.66
2022-08-25T13:46:48.314Z,16.66
2022-08-25T13:49:12.782Z,16.65
2022-08-25T13:51:31.340Z,16.65
2022-08-25T13:56:01.016Z,16.67
2022-08-25T13:58:24.667Z,16.69
2022-08-25T14:00:45.332Z,16.71
2022-08-25T14:02:59.235Z,16.75
2022-08-25T14:05:14.402Z,16.78
2022-08-25T14:07:35.746Z,16.81
2022-08-25T14:09:56.880Z,16.83
2022-08-25T14:12:10.260Z,16.85
2022-08-25T14:14:36.785Z,16.87
2022-08-25T14:16:57.420Z,16.89
2022-08-25T14:19:19.821Z,16.91
2022-08-25T14:21:35.202Z,16.94
2022-08-25T14:23:55.451Z,16.98
2022-08-25T14:26:08.538Z,16.99
2022-08-25T14:28:23.885Z,17.00
2022-08-25T14:30:43.475Z,17.03
2022-08-25T14:32:59.912Z,17.06
2022-08-25T14:35:17.440Z,17.08
2022-08-25T14:37:32.442Z,17.10
2022-08-25T14:39:45.918Z,17.12
2022-08-25T14:41:59.775Z,17.13
2022-08-25T14:44:13.785Z,17.15
2022-08-25T14:46:29.053Z,17.17
2022-08-25T14:48:49.471Z,17.20
2022-08-25T14:51:03.920Z,17.20
2022-08-25T14:53:17.658Z,17.22
2022-08-25T14:55:31.724Z,17.23
2022-08-25T14:57:45.275Z,17.23
2022-08-25T14:59:59.305Z,17.23
2022-08-25T15:02:14.287Z,17.22
2022-08-25T15:04:30.600Z,17.24
2022-08-25T15:06:44.950Z,17.29
2022-08-25T15:09:14.005Z,17.31
2022-08-25T15:11:26.957Z,17.35
2022-08-25T15:13:43.169Z,17.39
2022-08-25T15:15:58.060Z,17.41
2022-08-25T15:18:11.477Z,17.42
2022-08-25T15:20:24.666Z,17.45
2022-08-25T15:22:38.297Z,17.50
2022-08-25T15:24:51.366Z,17.56
2022-08-25T15:27:10.110Z,17.60
2022-08-25T15:29:23.911Z,17.63
2022-08-25T15:31:37.035Z,17.67
2022-08-25T15:33:50.321Z,17.71
2022-08-25T15:36:05.148Z,17.72
2022-08-25T15:38:18.446Z,17.74
2022-08-25T15:40:32.847Z,17.78
2022-08-25T15:42:46.220Z,17.80
2022-08-25T15:44:59.342Z,17.76
2022-08-25T15:47:13.045Z,17.74
2022-08-25T15:49:26.274Z,17.72
2022-08-25T15:51:43.202Z,17.68
2022-08-25T15:53:56.711Z,17.64
2022-08-25T15:56:15.397Z,17.61
2022-08-25T15:58:39.571Z,17.59
2022-08-25T16:01:03.071Z,17.60
2022-08-25T16:03:17.078Z,17.56
2022-08-25T16:05:30.621Z,17.52
2022-08-25T16:07:44.396Z,17.52
2022-08-25T16:10:01.928Z,17.54
2022-08-25T16:12:16.508Z,17.54
2022-08-25T16:14:29.797Z,17.53
2022-08-25T16:16:42.977Z,17.52
2022-08-25T16:18:59.281Z,17.52
2022-08-25T16:21:15.794Z,17.54
2022-08-25T16:23:29.037Z,17.55
2022-08-25T16:25:46.518Z,17.58
2022-08-25T16:28:00.033Z,17.61
2022-08-25T16:30:17.722Z,17.63
2022-08-25T16:32:31.111Z,17.63
2022-08-25T16:34:44.571Z,17.62
2022-08-25T16:36:58.360Z,17.62
2022-08-25T16:39:13.106Z,17.63
2022-08-25T16:41:35.773Z,17.65
2022-08-25T16:43:49.481Z,17.67
2022-08-25T16:46:07.091Z,17.70
2022-08-25T16:48:20.083Z,17.67
2022-08-25T16:50:36.313Z,17.67
2022-08-25T16:53:07.979Z,17.68
2022-08-25T16:55:21.310Z,17.68
2022-08-25T16:57:35.494Z,17.67
2022-08-25T16:59:48.365Z,17.69
2022-08-25T17:02:01.492Z,17.69
2022-08-25T17:04:15.485Z,17.73
2022-08-25T17:06:30.402Z,17.75
2022-08-25T17:08:43.538Z,17.76
2022-08-25T17:10:56.750Z,17.79
2022-08-25T17:13:10.503Z,17.82
2022-08-25T17:15:25.131Z,17.84
2022-08-25T17:17:38.492Z,17.82
2022-08-25T17:19:54.710Z,17.81
2022-08-25T17:22:09.997Z,17.79
2022-08-25T17:24:29.560Z,17.78
2022-08-25T17:26:45.894Z,17.77
2022-08-25T17:28:59.490Z,17.73
2022-08-25T17:31:13.123Z,17.73
2022-08-25T17:33:26.717Z,17.76
2022-08-25T17:35:44.564Z,17.82
2022-08-25T17:37:57.552Z,17.86
2022-08-25T17:40:12.499Z,17.89
2022-08-25T17:42:25.841Z,17.92
2022-08-25T17:44:43.517Z,17.95
2022-08-25T17:46:57.196Z,17.95
2022-08-25T17:49:10.742Z,17.92
2022-08-25T17:51:24.584Z,17.92
2022-08-25T17:53:39.658Z,17.96
2022-08-25T17:55:59.923Z,18.05
2022-08-25T17:58:13.766Z,18.09
2022-08-25T18:00:27.950Z,18.05
2022-08-25T18:02:41.059Z,18.04
2022-08-25T18:04:54.127Z,18.06
2022-08-25T18:07:07.153Z,18.10
2022-08-25T18:09:20.352Z,18.17
2022-08-25T18:11:34.548Z,18.20
2022-08-25T18:13:48.179Z,18.21
2022-08-25T18:16:03.594Z,18.24
2022-08-25T18:18:18.455Z,18.25
2022-08-25T18:20:31.848Z,18.27
2022-08-25T18:22:45.051Z,18.31
2022-08-25T18:24:58.195Z,18.40
2022-08-25T18:27:11.756Z,18.50
2022-08-25T18:29:24.723Z,18.60
2022-08-25T18:31:37.966Z,18.66
2022-08-25T18:33:52.271Z,18.72
2022-08-25T18:36:05.551Z,18.74
2022-08-25T18:38:34.601Z,18.76
2022-08-25T18:40:47.757Z,18.76
2022-08-25T18:43:03.063Z,18.78
2022-08-25T18:45:16.773Z,18.81
2022-08-25T18:47:29.779Z,18.85
2022-08-25T18:49:42.766Z,18.87
2022-08-25T18:51:55.888Z,18.96
2022-08-25T18:54:09.450Z,19.04
2022-08-25T18:56:37.791Z,19.09
2022-08-25T18:58:51.126Z,19.13
2022-08-25T19:01:04.101Z,19.21
2022-08-25T19:03:19.096Z,19.29
2022-08-25T19:05:34.775Z,19.34
2022-08-25T19:07:51.810Z,19.39
2022-08-25T19:10:05.171Z,19.40
2022-08-25T19:12:22.270Z,19.38
2022-08-25T19:14:36.296Z,19.35
2022-08-25T19:16:49.434Z,19.34
2022-08-25T19:19:03.654Z,19.28
2022-08-25T19:21:16.820Z,19.20
2022-08-25T19:23:39.221Z,19.10
2022-08-25T19:25:52.443Z,19.08
2022-08-25T19:28:07.729Z,19.12
2022-08-25T19:30:27.137Z,19.19
2022-08-25T19:32:43.563Z,19.23
2022-08-25T19:34:57.730Z,19.28
2022-08-25T19:37:11.491Z,19.28
2022-08-25T19:39:24.585Z,19.29
2022-08-25T19:41:37.808Z,19.35
2022-08-25T19:43:56.646Z,19.41
2022-08-25T19:46:10.941Z,19.41
2022-08-25T19:48:23.982Z,19.42
2022-08-25T19:50:37.465Z,19.43
2022-08-25T19:52:50.474Z,19.39
2022-08-25T19:55:05.180Z,19.38
2022-08-25T19:57:28.251Z,19.39
2022-08-25T19:59:52.673Z,19.39
2022-08-25T20:02:09.317Z,19.44
2022-08-25T20:04:24.697Z,19.61
2022-08-25T20:06:38.287Z,19.72
2022-08-25T20:08:58.744Z,19.82
2022-08-25T20:11:12.517Z,19.90
2022-08-25T20:13:25.569Z,19.98
2022-08-25T20:15:39.345Z,20.04
2022-08-25T20:17:56.588Z,20.06
2022-08-25T20:20:12.588Z,20.06
2022-08-25T20:22:26.964Z,20.16
2022-08-25T20:24:56.214Z,20.14
2022-08-25T20:27:11.784Z,20.19
2022-08-25T20:29:24.905Z,20.33
2022-08-25T20:31:38.035Z,20.41
2022-08-25T20:33:51.721Z,20.47
2022-08-25T20:36:05.931Z,20.46
2022-08-25T20:38:19.698Z,20.42
2022-08-25T20:40:34.125Z,20.43
2022-08-25T20:42:47.373Z,20.48
2022-08-25T20:45:00.404Z,20.49
2022-08-25T20:47:16.105Z,20.43
2022-08-25T20:49:30.556Z,20.37
2022-08-25T20:51:50.802Z,20.42
2022-08-25T20:54:04.671Z,20.50
2022-08-25T20:56:19.428Z,20.52
2022-08-25T20:58:32.463Z,20.50
2022-08-25T21:00:47.179Z,20.52
2022-08-25T21:03:00.145Z,20.47
2022-08-25T21:05:14.341Z,20.51
2022-08-25T21:07:28.514Z,20.56
2022-08-25T21:09:43.732Z,20.63
2022-08-25T21:11:58.068Z,20.62
2022-08-25T21:14:11.650Z,20.62
2022-08-25T21:16:25.030Z,20.65
2022-08-25T21:18:39.006Z,20.64
2022-08-25T21:20:57.167Z,20.69
2022-08-25T21:23:10.225Z,20.65
2022-08-25T21:25:24.305Z,20.62
2022-08-25T21:27:37.489Z,20.64
2022-08-25T21:29:54.982Z,20.65
2022-08-25T21:32:08.785Z,20.68
2022-08-25T21:34:23.421Z,20.73
2022-08-25T21:36:37.007Z,20.70
2022-08-25T21:38:50.285Z,20.66
2022-08-25T21:41:03.491Z,20.64
2022-08-25T21:43:16.521Z,20.55
2022-08-25T21:45:33.265Z,20.44
2022-08-25T21:47:49.768Z,20.47
2022-08-25T21:50:04.859Z,20.48
2022-08-25T21:52:17.899Z,20.41
2022-08-25T21:54:31.296Z,20.35
2022-08-25T21:56:46.565Z,20.35
2022-08-25T21:58:59.567Z,20.25
2022-08-25T22:01:17.473Z,20.11
2022-08-25T22:03:32.246Z,19.95
2022-08-25T22:05:50.182Z,19.80
2022-08-25T22:08:03.239Z,19.63
2022-08-25T22:10:17.887Z,19.54
2022-08-25T22:12:31.182Z,19.63
2022-08-25T22:14:45.222Z,19.72
2022-08-25T22:16:59.060Z,19.88
2022-08-25T22:19:13.850Z,20.03
2022-08-25T22:21:28.839Z,20.13
2022-08-25T22:23:44.095Z,20.17
2022-08-25T22:25:58.117Z,20.27
2022-08-25T22:28:14.563Z,20.32
2022-08-25T22:30:29.403Z,20.39
2022-08-25T22:32:42.798Z,20.46
2022-08-25T22:34:58.615Z,20.48
2022-08-25T22:37:13.368Z,20.47
2022-08-25T22:39:29.693Z,20.42
2022-08-25T22:41:43.199Z,20.43
2022-08-25T22:43:57.850Z,20.44
2022-08-25T22:46:13.612Z,20.44
2022-08-25T22:48:30.132Z,20.43
2022-08-25T22:50:43.357Z,20.41
2022-08-25T22:52:58.086Z,20.34
2022-08-25T22:55:13.485Z,20.29
2022-08-25T22:57:26.496Z,20.28
2022-08-25T22:59:40.480Z,20.17
2022-08-25T23:01:54.847Z,20.02
2022-08-25T23:04:08.597Z,19.91
2022-08-25T23:06:25.671Z,19.87
2022-08-25T23:08:40.578Z,19.86
2022-08-25T23:10:58.875Z,19.81
2022-08-25T23:13:12.061Z,19.78
2022-08-25T23:15:44.075Z,19.86
2022-08-25T23:17:57.270Z,19.96
2022-08-25T23:20:26.711Z,20.01
2022-08-25T23:22:39.766Z,19.97
2022-08-25T23:24:55.154Z,20.03
2022-08-25T23:27:09.943Z,20.10
2022-08-25T23:29:23.101Z,20.21
2022-08-25T23:31:38.301Z,20.26
2022-08-25T23:33:53.338Z,20.31
2022-08-25T23:36:08.227Z,20.36
2022-08-25T23:38:24.338Z,20.37
2022-08-25T23:40:37.373Z,20.34
2022-08-25T23:42:50.463Z,20.37
2022-08-25T23:45:03.499Z,20.35
2022-08-25T23:47:17.202Z,20.23
2022-08-25T23:49:30.566Z,20.11
2022-08-25T23:51:44.157Z,19.98
2022-08-25T23:53:57.700Z,19.90
2022-08-25T23:56:12.492Z,19.88
2022-08-25T23:58:26.012Z,19.93
